sensor_id;sensor_type;location;lat;lon;timestamp;temperature;humidity
27797;DHT22;15177;50.844;4.412;2023-02-14T00:02:10;7.70;99.90
27797;DHT22;15177;50.844;4.412;2023-02-14T00:04:36;7.70;99.90
27797;DHT22;15177;50.844;4.412;2023-02-14T00:07:08;7.60;99.90
27797;DHT22;15177;50.844;4.412;2023-02-14T00:09:34;7.60;99.90
27797;DHT22;15177;50.844;4.412;2023-02-14T00:12:00;7.60;99.90
27797;DHT22;15177;50.844;4.412;2023-02-14T00:14:26;7.60;99.90
27797;DHT22;15177;50.844;4.412;2023-02-14T00:17:10;7.60;99.90
27797;DHT22;15177;50.844;4.412;2023-02-14T00:19:36;7.60;99.90
27797;DHT22;15177;50.844;4.412;2023-02-14T00:22:03;7.50;99.90
27797;DHT22;15177;50.844;4.412;2023-02-14T00:24:29;7.50;99.90
27797;DHT22;15177;50.844;4.412;2023-02-14T00:26:55;7.50;99.90
27797;DHT22;15177;50.844;4.412;2023-02-14T00:29:23;7.50;99.90
27797;DHT22;15177;50.844;4.412;2023-02-14T00:31:49;7.50;99.90
27797;DHT22;15177;50.844;4.412;2023-02-14T00:34:17;7.50;99.90
27797;DHT22;15177;50.844;4.412;2023-02-14T00:36:44;7.50;99.90
27797;DHT22;15177;50.844;4.412;2023-02-14T00:39:12;7.50;99.90
27797;DHT22;15177;50.844;4.412;2023-02-14T00:41:41;7.50;99.90
27797;DHT22;15177;50.844;4.412;2023-02-14T00:44:08;7.50;99.90
27797;DHT22;15177;50.844;4.412;2023-02-14T00:46:34;7.40;99.90
27797;DHT22;15177;50.844;4.412;2023-02-14T00:49:00;7.40;99.90
27797;DHT22;15177;50.844;4.412;2023-02-14T00:51:26;7.40;99.90
27797;DHT22;15177;50.844;4.412;2023-02-14T00:53:52;7.30;99.90
27797;DHT22;15177;50.844;4.412;2023-02-14T00:56:18;7.30;99.90
27797;DHT22;15177;50.844;4.412;2023-02-14T00:58:44;7.30;99.90
27797;DHT22;15177;50.844;4.412;2023-02-14T01:01:15;7.30;99.90
27797;DHT22;15177;50.844;4.412;2023-02-14T01:03:42;7.30;99.90
27797;DHT22;15177;50.844;4.412;2023-02-14T01:06:08;7.30;99.90
27797;DHT22;15177;50.844;4.412;2023-02-14T01:08:34;7.20;99.90
27797;DHT22;15177;50.844;4.412;2023-02-14T01:11:13;7.20;99.90
27797;DHT22;15177;50.844;4.412;2023-02-14T01:13:40;7.20;99.90
27797;DHT22;15177;50.844;4.412;2023-02-14T01:16:18;7.30;99.90
27797;DHT22;15177;50.844;4.412;2023-02-14T01:18:44;7.30;99.90
27797;DHT22;15177;50.844;4.412;2023-02-14T01:23:36;7.20;99.90
27797;DHT22;15177;50.844;4.412;2023-02-14T01:26:08;7.20;99.90
27797;DHT22;15177;50.844;4.412;2023-02-14T01:28:34;7.10;99.90
27797;DHT22;15177;50.844;4.412;2023-02-14T01:31:12;7.10;99.90
27797;DHT22;15177;50.844;4.412;2023-02-14T01:33:39;7.00;99.90
27797;DHT22;15177;50.844;4.412;2023-02-14T01:36:05;7.10;99.90
27797;DHT22;15177;50.844;4.412;2023-02-14T01:38:32;7.00;99.90
27797;DHT22;15177;50.844;4.412;2023-02-14T01:40:57;6.90;99.90
27797;DHT22;15177;50.844;4.412;2023-02-14T01:43:24;6.90;99.90
27797;DHT22;15177;50.844;4.412;2023-02-14T01:45:50;6.90;99.90
27797;DHT22;15177;50.844;4.412;2023-02-14T01:48:20;7.00;99.90
27797;DHT22;15177;50.844;4.412;2023-02-14T01:50:48;7.00;99.90
27797;DHT22;15177;50.844;4.412;2023-02-14T01:53:25;6.90;99.90
27797;DHT22;15177;50.844;4.412;2023-02-14T01:55:59;7.00;99.90
27797;DHT22;15177;50.844;4.412;2023-02-14T01:58:29;6.90;99.90
27797;DHT22;15177;50.844;4.412;2023-02-14T02:00:56;6.90;99.90
27797;DHT22;15177;50.844;4.412;2023-02-14T02:03:34;6.80;99.90
27797;DHT22;15177;50.844;4.412;2023-02-14T02:11:27;6.80;99.90
27797;DHT22;15177;50.844;4.412;2023-02-14T02:13:53;6.70;99.90
27797;DHT22;15177;50.844;4.412;2023-02-14T02:25:36;6.70;99.90
27797;DHT22;15177;50.844;4.412;2023-02-14T02:46:00;6.60;99.90
27797;DHT22;15177;50.844;4.412;2023-02-14T02:51:34;6.60;99.90
27797;DHT22;15177;50.844;4.412;2023-02-14T02:54:38;6.50;99.90
27797;DHT22;15177;50.844;4.412;2023-02-14T02:57:22;6.50;99.90
27797;DHT22;15177;50.844;4.412;2023-02-14T02:59:51;6.50;99.90
27797;DHT22;15177;50.844;4.412;2023-02-14T03:02:31;6.40;99.90
27797;DHT22;15177;50.844;4.412;2023-02-14T03:05:01;6.40;99.90
27797;DHT22;15177;50.844;4.412;2023-02-14T03:07:33;6.50;99.90
27797;DHT22;15177;50.844;4.412;2023-02-14T03:20:37;6.40;99.90
27797;DHT22;15177;50.844;4.412;2023-02-14T03:24:10;6.40;99.90
27797;DHT22;15177;50.844;4.412;2023-02-14T03:32:00;6.40;99.90
27797;DHT22;15177;50.844;4.412;2023-02-14T03:34:34;6.50;99.90
27797;DHT22;15177;50.844;4.412;2023-02-14T03:37:31;6.50;99.90
27797;DHT22;15177;50.844;4.412;2023-02-14T03:42:41;6.50;99.90
27797;DHT22;15177;50.844;4.412;2023-02-14T03:45:11;6.50;99.90
27797;DHT22;15177;50.844;4.412;2023-02-14T03:47:40;6.50;99.90
27797;DHT22;15177;50.844;4.412;2023-02-14T03:50:14;6.50;99.90
27797;DHT22;15177;50.844;4.412;2023-02-14T03:52:42;6.50;99.90
27797;DHT22;15177;50.844;4.412;2023-02-14T03:55:09;6.50;99.90
27797;DHT22;15177;50.844;4.412;2023-02-14T04:00:11;6.50;99.90
27797;DHT22;15177;50.844;4.412;2023-02-14T04:02:49;6.50;99.90
27797;DHT22;15177;50.844;4.412;2023-02-14T04:05:25;6.50;99.90
27797;DHT22;15177;50.844;4.412;2023-02-14T04:07:57;6.50;99.90
27797;DHT22;15177;50.844;4.412;2023-02-14T04:10:23;6.50;99.90
27797;DHT22;15177;50.844;4.412;2023-02-14T04:12:49;6.50;99.90
27797;DHT22;15177;50.844;4.412;2023-02-14T04:15:16;6.40;99.90
27797;DHT22;15177;50.844;4.412;2023-02-14T04:17:42;6.20;99.90
27797;DHT22;15177;50.844;4.412;2023-02-14T04:20:27;6.30;99.90
27797;DHT22;15177;50.844;4.412;2023-02-14T04:22:53;6.30;99.90
27797;DHT22;15177;50.844;4.412;2023-02-14T04:25:20;6.40;99.90
27797;DHT22;15177;50.844;4.412;2023-02-14T04:27:45;6.50;99.90
27797;DHT22;15177;50.844;4.412;2023-02-14T04:30:13;6.50;99.90
27797;DHT22;15177;50.844;4.412;2023-02-14T04:32:39;6.50;99.90
27797;DHT22;15177;50.844;4.412;2023-02-14T04:35:06;6.40;99.90
27797;DHT22;15177;50.844;4.412;2023-02-14T04:37:32;6.30;99.90
27797;DHT22;15177;50.844;4.412;2023-02-14T04:39:57;6.30;99.90
27797;DHT22;15177;50.844;4.412;2023-02-14T04:42:23;6.20;99.90
27797;DHT22;15177;50.844;4.412;2023-02-14T04:44:49;6.20;99.90
27797;DHT22;15177;50.844;4.412;2023-02-14T04:47:14;6.20;99.90
27797;DHT22;15177;50.844;4.412;2023-02-14T04:49:40;6.20;99.90
27797;DHT22;15177;50.844;4.412;2023-02-14T04:52:06;6.20;99.90
27797;DHT22;15177;50.844;4.412;2023-02-14T04:54:32;6.20;99.90
27797;DHT22;15177;50.844;4.412;2023-02-14T04:56:58;6.20;99.90
27797;DHT22;15177;50.844;4.412;2023-02-14T04:59:25;6.20;99.90
27797;DHT22;15177;50.844;4.412;2023-02-14T05:01:53;6.30;99.90
27797;DHT22;15177;50.844;4.412;2023-02-14T05:04:18;6.30;99.90
27797;DHT22;15177;50.844;4.412;2023-02-14T05:06:44;6.30;99.90
27797;DHT22;15177;50.844;4.412;2023-02-14T05:09:09;6.30;99.90
27797;DHT22;15177;50.844;4.412;2023-02-14T05:11:35;6.30;99.90
27797;DHT22;15177;50.844;4.412;2023-02-14T05:14:01;6.30;99.90
27797;DHT22;15177;50.844;4.412;2023-02-14T05:16:26;6.30;99.90
27797;DHT22;15177;50.844;4.412;2023-02-14T05:18:52;6.30;99.90
27797;DHT22;15177;50.844;4.412;2023-02-14T05:21:18;6.30;99.90
27797;DHT22;15177;50.844;4.412;2023-02-14T05:23:43;6.20;99.90
27797;DHT22;15177;50.844;4.412;2023-02-14T05:26:09;6.20;99.90
27797;DHT22;15177;50.844;4.412;2023-02-14T05:28:35;6.20;99.90
27797;DHT22;15177;50.844;4.412;2023-02-14T05:31:01;6.10;99.90
27797;DHT22;15177;50.844;4.412;2023-02-14T05:33:26;6.10;99.90
27797;DHT22;15177;50.844;4.412;2023-02-14T05:35:52;6.10;99.90
27797;DHT22;15177;50.844;4.412;2023-02-14T05:38:18;6.10;99.90
27797;DHT22;15177;50.844;4.412;2023-02-14T05:40:44;6.10;99.90
27797;DHT22;15177;50.844;4.412;2023-02-14T05:43:10;6.10;99.90
27797;DHT22;15177;50.844;4.412;2023-02-14T05:45:36;6.00;99.90
27797;DHT22;15177;50.844;4.412;2023-02-14T05:48:02;6.00;99.90
27797;DHT22;15177;50.844;4.412;2023-02-14T05:50:28;5.90;99.90
27797;DHT22;15177;50.844;4.412;2023-02-14T05:52:54;5.90;99.90
27797;DHT22;15177;50.844;4.412;2023-02-14T05:55:21;6.00;99.90
27797;DHT22;15177;50.844;4.412;2023-02-14T05:57:46;5.90;99.90
27797;DHT22;15177;50.844;4.412;2023-02-14T06:00:13;6.00;99.90
27797;DHT22;15177;50.844;4.412;2023-02-14T06:02:39;6.00;99.90
27797;DHT22;15177;50.844;4.412;2023-02-14T06:05:06;5.90;99.90
27797;DHT22;15177;50.844;4.412;2023-02-14T06:07:32;5.80;99.90
27797;DHT22;15177;50.844;4.412;2023-02-14T06:09:58;5.80;99.90
27797;DHT22;15177;50.844;4.412;2023-02-14T06:12:24;5.80;99.90
27797;DHT22;15177;50.844;4.412;2023-02-14T06:14:51;5.80;99.90
27797;DHT22;15177;50.844;4.412;2023-02-14T06:17:18;5.70;99.90
27797;DHT22;15177;50.844;4.412;2023-02-14T06:19:43;5.70;99.90
27797;DHT22;15177;50.844;4.412;2023-02-14T06:22:10;5.70;99.90
27797;DHT22;15177;50.844;4.412;2023-02-14T06:24:35;5.80;99.90
27797;DHT22;15177;50.844;4.412;2023-02-14T06:27:01;5.70;99.90
27797;DHT22;15177;50.844;4.412;2023-02-14T06:29:28;5.70;99.90
27797;DHT22;15177;50.844;4.412;2023-02-14T06:31:54;5.80;99.90
27797;DHT22;15177;50.844;4.412;2023-02-14T06:34:20;5.70;99.90
27797;DHT22;15177;50.844;4.412;2023-02-14T06:36:46;5.60;99.90
27797;DHT22;15177;50.844;4.412;2023-02-14T06:39:13;5.60;99.90
27797;DHT22;15177;50.844;4.412;2023-02-14T06:41:39;5.60;99.90
27797;DHT22;15177;50.844;4.412;2023-02-14T06:44:05;5.50;99.90
27797;DHT22;15177;50.844;4.412;2023-02-14T06:46:34;5.50;99.90
27797;DHT22;15177;50.844;4.412;2023-02-14T06:49:00;5.60;99.90
27797;DHT22;15177;50.844;4.412;2023-02-14T06:51:27;5.60;99.90
27797;DHT22;15177;50.844;4.412;2023-02-14T06:53:53;5.70;99.90
27797;DHT22;15177;50.844;4.412;2023-02-14T06:56:20;5.60;99.90
27797;DHT22;15177;50.844;4.412;2023-02-14T06:58:45;5.70;99.90
27797;DHT22;15177;50.844;4.412;2023-02-14T07:01:11;5.70;99.90
27797;DHT22;15177;50.844;4.412;2023-02-14T07:03:36;5.80;99.90
27797;DHT22;15177;50.844;4.412;2023-02-14T07:06:02;5.80;99.90
27797;DHT22;15177;50.844;4.412;2023-02-14T07:08:28;5.80;99.90
27797;DHT22;15177;50.844;4.412;2023-02-14T07:10:57;5.70;99.90
27797;DHT22;15177;50.844;4.412;2023-02-14T07:13:23;5.80;99.90
27797;DHT22;15177;50.844;4.412;2023-02-14T07:15:49;5.80;99.90
27797;DHT22;15177;50.844;4.412;2023-02-14T07:18:15;5.80;99.90
27797;DHT22;15177;50.844;4.412;2023-02-14T07:20:41;6.00;99.90
27797;DHT22;15177;50.844;4.412;2023-02-14T07:23:06;6.10;99.90
27797;DHT22;15177;50.844;4.412;2023-02-14T07:25:32;6.20;99.90
27797;DHT22;15177;50.844;4.412;2023-02-14T07:27:58;6.40;99.90
27797;DHT22;15177;50.844;4.412;2023-02-14T07:30:24;6.50;99.90
27797;DHT22;15177;50.844;4.412;2023-02-14T07:32:50;6.60;99.90
27797;DHT22;15177;50.844;4.412;2023-02-14T07:35:16;6.70;99.90
27797;DHT22;15177;50.844;4.412;2023-02-14T07:37:42;6.80;99.90
27797;DHT22;15177;50.844;4.412;2023-02-14T07:40:09;6.60;99.90
27797;DHT22;15177;50.844;4.412;2023-02-14T07:42:36;6.60;99.90
27797;DHT22;15177;50.844;4.412;2023-02-14T07:45:04;6.70;99.90
27797;DHT22;15177;50.844;4.412;2023-02-14T07:47:31;6.80;99.90
27797;DHT22;15177;50.844;4.412;2023-02-14T07:49:57;6.80;99.90
27797;DHT22;15177;50.844;4.412;2023-02-14T07:52:23;7.00;99.90
27797;DHT22;15177;50.844;4.412;2023-02-14T07:54:49;7.10;99.90
27797;DHT22;15177;50.844;4.412;2023-02-14T07:57:16;7.20;99.90
27797;DHT22;15177;50.844;4.412;2023-02-14T07:59:43;7.10;99.90
27797;DHT22;15177;50.844;4.412;2023-02-14T08:02:11;7.20;99.90
27797;DHT22;15177;50.844;4.412;2023-02-14T08:04:37;7.30;99.90
27797;DHT22;15177;50.844;4.412;2023-02-14T08:07:03;7.50;99.90
27797;DHT22;15177;50.844;4.412;2023-02-14T08:09:29;7.90;99.90
27797;DHT22;15177;50.844;4.412;2023-02-14T08:11:56;8.60;99.90
27797;DHT22;15177;50.844;4.412;2023-02-14T08:14:42;9.70;99.90
27797;DHT22;15177;50.844;4.412;2023-02-14T08:17:09;11.10;99.90
27797;DHT22;15177;50.844;4.412;2023-02-14T08:19:39;12.20;99.90
27797;DHT22;15177;50.844;4.412;2023-02-14T08:22:05;13.30;99.90
27797;DHT22;15177;50.844;4.412;2023-02-14T08:24:31;14.40;99.90
27797;DHT22;15177;50.844;4.412;2023-02-14T08:26:57;15.40;99.90
27797;DHT22;15177;50.844;4.412;2023-02-14T08:29:23;16.20;99.90
27797;DHT22;15177;50.844;4.412;2023-02-14T08:31:50;17.00;99.90
27797;DHT22;15177;50.844;4.412;2023-02-14T08:34:17;17.50;99.90
27797;DHT22;15177;50.844;4.412;2023-02-14T08:36:44;17.90;99.90
27797;DHT22;15177;50.844;4.412;2023-02-14T08:39:10;18.20;98.60
27797;DHT22;15177;50.844;4.412;2023-02-14T08:41:36;18.50;95.70
27797;DHT22;15177;50.844;4.412;2023-02-14T08:44:03;18.80;95.70
27797;DHT22;15177;50.844;4.412;2023-02-14T08:46:28;19.10;94.40
27797;DHT22;15177;50.844;4.412;2023-02-14T08:48:54;19.30;93.80
27797;DHT22;15177;50.844;4.412;2023-02-14T08:51:21;19.30;93.30
27797;DHT22;15177;50.844;4.412;2023-02-14T08:53:49;19.70;92.00
27797;DHT22;15177;50.844;4.412;2023-02-14T08:56:15;19.90;91.10
27797;DHT22;15177;50.844;4.412;2023-02-14T08:58:42;20.00;90.10
27797;DHT22;15177;50.844;4.412;2023-02-14T09:01:13;20.30;87.40
27797;DHT22;15177;50.844;4.412;2023-02-14T09:03:39;20.10;87.40
27797;DHT22;15177;50.844;4.412;2023-02-14T09:06:11;20.20;86.90
27797;DHT22;15177;50.844;4.412;2023-02-14T09:08:38;20.60;84.90
27797;DHT22;15177;50.844;4.412;2023-02-14T09:11:09;21.00;80.60
27797;DHT22;15177;50.844;4.412;2023-02-14T09:13:36;21.40;79.40
27797;DHT22;15177;50.844;4.412;2023-02-14T09:16:03;21.40;78.70
27797;DHT22;15177;50.844;4.412;2023-02-14T09:18:29;21.80;77.20
27797;DHT22;15177;50.844;4.412;2023-02-14T09:20:55;21.80;75.50
27797;DHT22;15177;50.844;4.412;2023-02-14T09:23:21;21.90;74.80
27797;DHT22;15177;50.844;4.412;2023-02-14T09:25:47;22.00;73.80
27797;DHT22;15177;50.844;4.412;2023-02-14T09:28:13;22.00;73.60
27797;DHT22;15177;50.844;4.412;2023-02-14T09:30:42;21.80;72.70
27797;DHT22;15177;50.844;4.412;2023-02-14T09:33:08;21.80;73.10
27797;DHT22;15177;50.844;4.412;2023-02-14T09:35:35;21.60;73.50
27797;DHT22;15177;50.844;4.412;2023-02-14T09:38:02;21.60;74.20
27797;DHT22;15177;50.844;4.412;2023-02-14T09:40:43;21.70;74.50
27797;DHT22;15177;50.844;4.412;2023-02-14T09:43:16;21.60;73.00
27797;DHT22;15177;50.844;4.412;2023-02-14T09:45:50;21.40;73.40
27797;DHT22;15177;50.844;4.412;2023-02-14T09:48:41;21.40;74.10
27797;DHT22;15177;50.844;4.412;2023-02-14T09:51:14;21.30;74.40
27797;DHT22;15177;50.844;4.412;2023-02-14T09:53:45;21.40;73.40
27797;DHT22;15177;50.844;4.412;2023-02-14T09:59:35;21.80;73.50
27797;DHT22;15177;50.844;4.412;2023-02-14T10:05:10;21.80;71.80
27797;DHT22;15177;50.844;4.412;2023-02-14T10:10:24;21.90;71.00
27797;DHT22;15177;50.844;4.412;2023-02-14T10:12:55;21.90;71.00
27797;DHT22;15177;50.844;4.412;2023-02-14T10:15:25;21.90;70.70
27797;DHT22;15177;50.844;4.412;2023-02-14T10:20:31;21.70;71.30
27797;DHT22;15177;50.844;4.412;2023-02-14T10:23:21;21.70;71.30
27797;DHT22;15177;50.844;4.412;2023-02-14T10:26:01;21.60;71.90
27797;DHT22;15177;50.844;4.412;2023-02-14T10:28:33;20.80;73.20
27797;DHT22;15177;50.844;4.412;2023-02-14T10:31:22;21.30;72.90
27797;DHT22;15177;50.844;4.412;2023-02-14T10:39:46;21.70;70.90
27797;DHT22;15177;50.844;4.412;2023-02-14T10:45:04;21.80;71.50
27797;DHT22;15177;50.844;4.412;2023-02-14T10:50:29;21.50;70.90
27797;DHT22;15177;50.844;4.412;2023-02-14T10:55:55;21.10;71.80
27797;DHT22;15177;50.844;4.412;2023-02-14T10:58:26;20.90;72.40
27797;DHT22;15177;50.844;4.412;2023-02-14T11:01:04;20.00;74.90
27797;DHT22;15177;50.844;4.412;2023-02-14T11:03:34;19.70;77.20
27797;DHT22;15177;50.844;4.412;2023-02-14T11:06:01;19.10;78.50
27797;DHT22;15177;50.844;4.412;2023-02-14T11:08:28;18.00;85.60
27797;DHT22;15177;50.844;4.412;2023-02-14T11:13:38;17.00;90.80
27797;DHT22;15177;50.844;4.412;2023-02-14T11:16:09;16.40;92.80
27797;DHT22;15177;50.844;4.412;2023-02-14T11:18:36;16.40;93.60
27797;DHT22;15177;50.844;4.412;2023-02-14T11:21:14;16.20;94.20
27797;DHT22;15177;50.844;4.412;2023-02-14T11:23:47;16.00;94.60
27797;DHT22;15177;50.844;4.412;2023-02-14T11:26:21;15.80;95.10
27797;DHT22;15177;50.844;4.412;2023-02-14T11:29:00;15.50;95.80
27797;DHT22;15177;50.844;4.412;2023-02-14T11:31:35;15.40;97.10
27797;DHT22;15177;50.844;4.412;2023-02-14T11:34:13;15.30;97.20
27797;DHT22;15177;50.844;4.412;2023-02-14T11:36:43;15.10;97.50
27797;DHT22;15177;50.844;4.412;2023-02-14T11:39:24;14.30;99.70
27797;DHT22;15177;50.844;4.412;2023-02-14T11:41:54;14.20;99.90
27797;DHT22;15177;50.844;4.412;2023-02-14T11:44:25;14.50;99.90
27797;DHT22;15177;50.844;4.412;2023-02-14T11:46:53;14.60;99.90
27797;DHT22;15177;50.844;4.412;2023-02-14T11:51:52;14.60;99.90
27797;DHT22;15177;50.844;4.412;2023-02-14T11:56:56;14.70;99.90
27797;DHT22;15177;50.844;4.412;2023-02-14T11:59:36;14.60;99.90
27797;DHT22;15177;50.844;4.412;2023-02-14T12:05:00;14.80;99.90
27797;DHT22;15177;50.844;4.412;2023-02-14T12:07:34;14.70;99.90
27797;DHT22;15177;50.844;4.412;2023-02-14T12:20:50;14.60;99.90
27797;DHT22;15177;50.844;4.412;2023-02-14T12:23:39;14.80;99.90
27797;DHT22;15177;50.844;4.412;2023-02-14T12:26:12;14.50;99.90
27797;DHT22;15177;50.844;4.412;2023-02-14T12:31:38;15.00;99.90
27797;DHT22;15177;50.844;4.412;2023-02-14T12:34:04;14.90;99.90
27797;DHT22;15177;50.844;4.412;2023-02-14T12:56:00;14.60;99.90
27797;DHT22;15177;50.844;4.412;2023-02-14T12:58:53;14.70;99.90
27797;DHT22;15177;50.844;4.412;2023-02-14T13:15:47;14.50;99.90
27797;DHT22;15177;50.844;4.412;2023-02-14T13:20:57;14.70;99.90
27797;DHT22;15177;50.844;4.412;2023-02-14T13:23:34;14.60;99.90
27797;DHT22;15177;50.844;4.412;2023-02-14T13:26:23;14.60;99.90
27797;DHT22;15177;50.844;4.412;2023-02-14T13:29:00;14.70;99.90
27797;DHT22;15177;50.844;4.412;2023-02-14T13:31:27;14.80;99.90
27797;DHT22;15177;50.844;4.412;2023-02-14T13:36:43;14.70;99.90
27797;DHT22;15177;50.844;4.412;2023-02-14T13:39:28;14.70;99.90
27797;DHT22;15177;50.844;4.412;2023-02-14T13:41:56;14.70;99.90
27797;DHT22;15177;50.844;4.412;2023-02-14T13:44:44;14.70;99.90
27797;DHT22;15177;50.844;4.412;2023-02-14T13:47:20;14.70;99.90
27797;DHT22;15177;50.844;4.412;2023-02-14T13:49:50;14.60;99.90
27797;DHT22;15177;50.844;4.412;2023-02-14T13:52:45;14.60;99.90
27797;DHT22;15177;50.844;4.412;2023-02-14T13:55:27;14.60;99.90
27797;DHT22;15177;50.844;4.412;2023-02-14T13:58:00;14.70;99.90
27797;DHT22;15177;50.844;4.412;2023-02-14T14:00:41;14.70;99.90
27797;DHT22;15177;50.844;4.412;2023-02-14T14:03:15;14.70;99.90
27797;DHT22;15177;50.844;4.412;2023-02-14T14:06:09;14.70;99.90
27797;DHT22;15177;50.844;4.412;2023-02-14T14:08:47;14.60;99.90
27797;DHT22;15177;50.844;4.412;2023-02-14T14:11:47;14.60;99.90
27797;DHT22;15177;50.844;4.412;2023-02-14T14:14:28;14.60;99.90
27797;DHT22;15177;50.844;4.412;2023-02-14T14:16:58;14.70;99.90
27797;DHT22;15177;50.844;4.412;2023-02-14T14:24:30;14.60;99.90
27797;DHT22;15177;50.844;4.412;2023-02-14T14:26:59;14.60;99.90
27797;DHT22;15177;50.844;4.412;2023-02-14T14:31:55;14.80;99.90
27797;DHT22;15177;50.844;4.412;2023-02-14T14:34:24;14.60;99.90
27797;DHT22;15177;50.844;4.412;2023-02-14T14:37:01;14.60;99.90
27797;DHT22;15177;50.844;4.412;2023-02-14T14:39:30;14.60;99.90
27797;DHT22;15177;50.844;4.412;2023-02-14T14:42:05;14.70;99.90
27797;DHT22;15177;50.844;4.412;2023-02-14T14:44:33;14.70;99.90
27797;DHT22;15177;50.844;4.412;2023-02-14T14:47:00;14.70;99.90
27797;DHT22;15177;50.844;4.412;2023-02-14T14:49:27;14.60;99.90
27797;DHT22;15177;50.844;4.412;2023-02-14T14:51:54;14.70;99.90
27797;DHT22;15177;50.844;4.412;2023-02-14T14:54:21;14.60;99.90
27797;DHT22;15177;50.844;4.412;2023-02-14T14:56:55;14.70;99.90
27797;DHT22;15177;50.844;4.412;2023-02-14T14:59:33;14.60;99.90
27797;DHT22;15177;50.844;4.412;2023-02-14T15:02:00;14.60;99.90
27797;DHT22;15177;50.844;4.412;2023-02-14T15:04:31;14.60;99.90
27797;DHT22;15177;50.844;4.412;2023-02-14T15:07:17;14.50;99.90
27797;DHT22;15177;50.844;4.412;2023-02-14T15:09:43;14.50;99.90
27797;DHT22;15177;50.844;4.412;2023-02-14T15:12:10;14.50;99.90
27797;DHT22;15177;50.844;4.412;2023-02-14T15:14:55;14.50;99.90
27797;DHT22;15177;50.844;4.412;2023-02-14T15:17:24;14.50;99.90
27797;DHT22;15177;50.844;4.412;2023-02-14T15:19:54;14.50;99.90
27797;DHT22;15177;50.844;4.412;2023-02-14T15:22:31;14.40;99.90
27797;DHT22;15177;50.844;4.412;2023-02-14T15:24:59;14.40;99.90
27797;DHT22;15177;50.844;4.412;2023-02-14T15:27:26;14.30;99.90
27797;DHT22;15177;50.844;4.412;2023-02-14T15:30:04;14.30;99.90
27797;DHT22;15177;50.844;4.412;2023-02-14T15:32:32;14.30;99.90
27797;DHT22;15177;50.844;4.412;2023-02-14T15:35:02;14.40;99.90
27797;DHT22;15177;50.844;4.412;2023-02-14T15:37:28;14.30;99.90
27797;DHT22;15177;50.844;4.412;2023-02-14T15:39:55;14.30;99.90
27797;DHT22;15177;50.844;4.412;2023-02-14T15:45:20;14.30;99.90
27797;DHT22;15177;50.844;4.412;2023-02-14T15:48:01;14.30;99.90
27797;DHT22;15177;50.844;4.412;2023-02-14T15:50:33;14.20;99.90
27797;DHT22;15177;50.844;4.412;2023-02-14T15:55:29;14.20;99.90
27797;DHT22;15177;50.844;4.412;2023-02-14T15:58:02;14.20;99.90
27797;DHT22;15177;50.844;4.412;2023-02-14T16:00:30;14.10;99.90
27797;DHT22;15177;50.844;4.412;2023-02-14T16:03:01;14.10;99.90
27797;DHT22;15177;50.844;4.412;2023-02-14T16:05:29;14.00;99.90
27797;DHT22;15177;50.844;4.412;2023-02-14T16:08:25;13.90;99.90
27797;DHT22;15177;50.844;4.412;2023-02-14T16:11:12;13.90;99.90
27797;DHT22;15177;50.844;4.412;2023-02-14T16:13:41;13.80;99.90
27797;DHT22;15177;50.844;4.412;2023-02-14T16:16:10;13.80;99.90
27797;DHT22;15177;50.844;4.412;2023-02-14T16:21:23;13.60;99.90
27797;DHT22;15177;50.844;4.412;2023-02-14T16:26:40;13.60;99.90
27797;DHT22;15177;50.844;4.412;2023-02-14T16:29:08;13.50;99.90
27797;DHT22;15177;50.844;4.412;2023-02-14T16:31:36;13.40;99.90
27797;DHT22;15177;50.844;4.412;2023-02-14T16:34:02;13.40;99.90
27797;DHT22;15177;50.844;4.412;2023-02-14T16:36:30;13.40;99.90
27797;DHT22;15177;50.844;4.412;2023-02-14T16:38:56;13.30;99.90
27797;DHT22;15177;50.844;4.412;2023-02-14T16:41:25;13.30;99.90
27797;DHT22;15177;50.844;4.412;2023-02-14T16:43:52;13.30;99.90
27797;DHT22;15177;50.844;4.412;2023-02-14T16:46:24;13.30;99.90
27797;DHT22;15177;50.844;4.412;2023-02-14T16:48:50;13.20;99.90
27797;DHT22;15177;50.844;4.412;2023-02-14T16:51:26;13.20;99.90
27797;DHT22;15177;50.844;4.412;2023-02-14T16:53:54;13.10;99.90
27797;DHT22;15177;50.844;4.412;2023-02-14T16:56:28;13.10;99.90
27797;DHT22;15177;50.844;4.412;2023-02-14T16:58:57;13.10;99.90
27797;DHT22;15177;50.844;4.412;2023-02-14T17:01:24;13.00;99.90
27797;DHT22;15177;50.844;4.412;2023-02-14T17:03:50;13.00;99.90
27797;DHT22;15177;50.844;4.412;2023-02-14T17:06:20;13.10;99.90
27797;DHT22;15177;50.844;4.412;2023-02-14T17:08:50;13.10;99.90
27797;DHT22;15177;50.844;4.412;2023-02-14T17:11:16;13.00;99.90
27797;DHT22;15177;50.844;4.412;2023-02-14T17:13:43;12.90;99.90
27797;DHT22;15177;50.844;4.412;2023-02-14T17:16:11;12.80;99.90
27797;DHT22;15177;50.844;4.412;2023-02-14T17:18:40;12.70;99.90
27797;DHT22;15177;50.844;4.412;2023-02-14T17:21:08;12.70;99.90
27797;DHT22;15177;50.844;4.412;2023-02-14T17:23:34;12.60;99.90
27797;DHT22;15177;50.844;4.412;2023-02-14T17:25:59;12.60;99.90
27797;DHT22;15177;50.844;4.412;2023-02-14T17:28:25;12.60;99.90
27797;DHT22;15177;50.844;4.412;2023-02-14T17:30:51;12.50;99.90
27797;DHT22;15177;50.844;4.412;2023-02-14T17:33:19;12.50;99.90
27797;DHT22;15177;50.844;4.412;2023-02-14T17:35:45;12.40;99.90
27797;DHT22;15177;50.844;4.412;2023-02-14T17:38:11;12.40;99.90
27797;DHT22;15177;50.844;4.412;2023-02-14T17:40:37;12.30;99.90
27797;DHT22;15177;50.844;4.412;2023-02-14T17:43:02;12.30;99.90
27797;DHT22;15177;50.844;4.412;2023-02-14T17:45:28;12.20;99.90
27797;DHT22;15177;50.844;4.412;2023-02-14T17:47:54;12.20;99.90
27797;DHT22;15177;50.844;4.412;2023-02-14T17:50:21;12.20;99.90
27797;DHT22;15177;50.844;4.412;2023-02-14T17:52:48;12.10;99.90
27797;DHT22;15177;50.844;4.412;2023-02-14T17:55:17;12.10;99.90
27797;DHT22;15177;50.844;4.412;2023-02-14T17:57:43;12.00;99.90
27797;DHT22;15177;50.844;4.412;2023-02-14T18:00:12;12.00;99.90
27797;DHT22;15177;50.844;4.412;2023-02-14T18:02:40;11.90;99.90
27797;DHT22;15177;50.844;4.412;2023-02-14T18:05:06;11.90;99.90
27797;DHT22;15177;50.844;4.412;2023-02-14T18:07:32;11.80;99.90
27797;DHT22;15177;50.844;4.412;2023-02-14T18:09:58;11.80;99.90
27797;DHT22;15177;50.844;4.412;2023-02-14T18:12:24;11.70;99.90
27797;DHT22;15177;50.844;4.412;2023-02-14T18:14:49;11.70;99.90
27797;DHT22;15177;50.844;4.412;2023-02-14T18:17:17;11.60;99.90
27797;DHT22;15177;50.844;4.412;2023-02-14T18:19:43;11.60;99.90
27797;DHT22;15177;50.844;4.412;2023-02-14T18:22:11;11.60;99.90
27797;DHT22;15177;50.844;4.412;2023-02-14T18:24:36;11.60;99.90
27797;DHT22;15177;50.844;4.412;2023-02-14T18:27:02;11.50;99.90
27797;DHT22;15177;50.844;4.412;2023-02-14T18:29:30;11.50;99.90
27797;DHT22;15177;50.844;4.412;2023-02-14T18:31:56;11.50;99.90
27797;DHT22;15177;50.844;4.412;2023-02-14T18:34:22;11.50;99.90
27797;DHT22;15177;50.844;4.412;2023-02-14T18:36:47;11.50;99.90
27797;DHT22;15177;50.844;4.412;2023-02-14T18:39:13;11.40;99.90
27797;DHT22;15177;50.844;4.412;2023-02-14T18:41:39;11.40;99.90